Dali — 9V5283 — position and weather

sailwx.info

Track history (hours):
 
Tides and Currents Weather Stations Pressure Air Temp Water Temp Dewpoint Dewpoint Depression Visibility Wind Speed Wind Dir Waves Ship Positions

Dali

Last reported at 2017-Aug-22 13:19 UTC. Time now 2017-Sep-20 02:13 UTC.
Position N 31°56' E 031°17'.
Warning: this ship's position is 28 days out of date.

Length 300 m; draft 13.8 m.

Type: Cargo ship. MMSI: 563004200.

Date/timePositionNaut miles runAvg speedWind from/ knotsBaromVisibWave heightAir tempDewpointWater temp
2017-Aug-22 13:19N 31°56' E 031°17'76519.4
2017-Aug-20 21:52N 35°46' E 016°39'820.0
2017-Aug-20 21:29N 35°48' E 016°30'919.5
2017-Aug-20 21:00N 35°51' E 016°19'1019.1
2017-Aug-20 20:30N 35°54' E 016°07'1019.2
2017-Aug-20 20:00N 35°57' E 015°56'3819.9
2017-Aug-20 18:05N 36°08' E 015°11'220.3
2017-Aug-20 18:00N 36°08' E 015°09'1020.5
2017-Aug-20 17:30N 36°12' E 014°57'1020.3
2017-Aug-20 17:00N 36°15' E 014°45'1020.1
2017-Aug-20 16:30N 36°18' E 014°33'1020.1
2017-Aug-20 16:00N 36°21' E 014°21'1020.2
2017-Aug-20 15:30N 36°24' E 014°09'1020.0
2017-Aug-20 15:00N 36°27' E 013°57'1020.0
2017-Aug-20 14:30N 36°30' E 013°46'1020.2
2017-Aug-20 14:00N 36°34' E 013°34'1020.5
2017-Aug-20 13:30N 36°37' E 013°22'1020.6
2017-Aug-20 13:00N 36°40' E 013°10'1020.5
2017-Aug-20 12:30N 36°43' E 012°57'1020.3
2017-Aug-20 12:00N 36°46' E 012°45'1020.2
2017-Aug-20 11:30N 36°49' E 012°33'1520.0
2017-Aug-20 10:45N 36°53' E 012°15'519.8
2017-Aug-20 10:30N 36°55' E 012°10'1019.9
2017-Aug-20 10:01N 36°59' E 011°58'1020.0
2017-Aug-20 09:30N 37°04' E 011°47'1119.9
2017-Aug-20 08:56N 37°09' E 011°35'920.1
2017-Aug-20 08:30N 37°14' E 011°25'1020.4
2017-Aug-20 08:00N 37°19' E 011°14'1020.2
2017-Aug-20 07:30N 37°23' E 011°03'1020.0
2017-Aug-20 07:00N 37°26' E 010°50'1020.2
2017-Aug-20 06:30N 37°29' E 010°38'1020.0
2017-Aug-20 06:00N 37°31' E 010°26'1019.7
2017-Aug-20 05:30N 37°33' E 010°14'1019.7
2017-Aug-20 05:00N 37°33' E 010°01'1119.8
2017-Aug-20 04:28N 37°30' E 009°49'22619.5
2017-Aug-19 16:54N 37°10' E 005°06'919.8
2017-Aug-19 16:26N 37°10' E 004°54'1319.7
2017-Aug-19 15:48N 37°09' E 004°38'619.5
2017-Aug-19 15:29N 37°08' E 004°31'919.9
2017-Aug-19 15:00N 37°08' E 004°19'2020.3
2017-Aug-19 14:00N 37°04' E 003°54'1020.4
2017-Aug-19 13:30N 37°03' E 003°41'1020.3
2017-Aug-19 13:00N 37°01' E 003°28'1020.3
2017-Aug-19 12:30N 36°60' E 003°16'1020.2
2017-Aug-19 12:00N 36°58' E 003°04'1120.3
2017-Aug-19 11:27N 36°56' E 002°50'1020.2
2017-Aug-19 10:58N 36°55' E 002°38'1020.2
2017-Aug-19 10:30N 36°53' E 002°26'1120.2
2017-Aug-19 09:59N 36°52' E 002°13'4620.0
2017-Aug-19 07:40N 36°46' E 001°15'3120.9
2017-Aug-19 06:12N 36°42' E 000°38'620.9
2017-Aug-19 05:53N 36°41' E 000°30'820.6
2017-Aug-19 05:31N 36°40' E 000°20'1020.6
2017-Aug-19 05:00N 36°38' E 000°07'1020.6
2017-Aug-19 04:31N 36°36' W 000°05'1020.5
2017-Aug-19 04:00N 36°35' W 000°18'1020.4
2017-Aug-19 03:31N 36°33' W 000°30'1020.5
2017-Aug-19 03:01N 36°32' W 000°43'1020.7
2017-Aug-19 02:31N 36°31' W 000°56'1120.9
2017-Aug-19 01:58N 36°29' W 001°10'1220.6
2017-Aug-19 01:22N 36°27' W 001°25'1020.9
2017-Aug-19 00:53N 36°25' W 001°37'921.2
2017-Aug-19 00:28N 36°24' W 001°48'1021.4
2017-Aug-19 00:00N 36°23' W 002°00'1121.8
2017-Aug-18 23:30N 36°22' W 002°14'14221.2
2017-Aug-18 16:50N 36°02' W 005°08'720.9
2017-Aug-18 16:30N 36°01' W 005°16'1122.4
2017-Aug-18 16:01N 35°58' W 005°29'2221.3
2017-Aug-18 14:58N 35°55' W 005°57'8020.4
2017-Aug-18 11:01N 36°11' W 007°34'019.8
2017-Aug-18 11:00N 36°11' W 007°34'1020.5
2017-Aug-18 10:31N 36°13' W 007°46'1020.6
2017-Aug-18 10:00N 36°15' W 007°59'1020.7
2017-Aug-18 09:31N 36°18' W 008°11'1020.9
2017-Aug-18 09:01N 36°20' W 008°24'1020.7
2017-Aug-18 08:30N 36°23' W 008°36'1020.9
2017-Aug-18 08:01N 36°27' W 008°49'1020.8
2017-Aug-18 07:31N 36°30' W 009°01'1020.9
2017-Aug-18 07:01N 36°33' W 009°13'1020.3
2017-Aug-18 06:30N 36°38' W 009°24'1020.8
2017-Aug-18 06:00N 36°46' W 009°32'1121.1
2017-Aug-18 05:30N 36°56' W 009°36'1121.3
2017-Aug-18 05:00N 37°07' W 009°39'1121.2
2017-Aug-18 04:31N 37°17' W 009°42'1121.1
2017-Aug-18 04:00N 37°27' W 009°45'1020.7
2017-Aug-18 03:30N 37°37' W 009°49'1020.7
2017-Aug-18 03:00N 37°48' W 009°51'1020.7
2017-Aug-18 02:30N 37°58' W 009°54'1020.4
2017-Aug-18 02:00N 38°08' W 009°56'1020.3
2017-Aug-18 01:30N 38°18' W 009°59'1020.6
2017-Aug-18 01:01N 38°28' W 010°02'1121.0
2017-Aug-18 00:30N 38°38' W 010°05'1020.7
2017-Aug-18 00:01N 38°48' W 010°07'1020.9
2017-Aug-17 23:31N 38°59' W 010°07'1020.9
2017-Aug-17 23:01N 39°09' W 010°07'1020.8
2017-Aug-17 22:31N 39°19' W 010°07'1121.0
2017-Aug-17 22:01N 39°30' W 010°07'1121.1
2017-Aug-17 21:30N 39°40' W 010°07'1121.1
2017-Aug-17 21:01N 39°51' W 010°07'1020.9
2017-Aug-17 20:31N 40°01' W 010°07'1020.4
2017-Aug-17 20:00N 40°12' W 010°06'1020.4
2017-Aug-17 19:30N 40°22' W 010°07'1121.0
2017-Aug-17 19:00N 40°32' W 010°07'1021.0
2017-Aug-17 18:30N 40°43' W 010°07'1121.0
2017-Aug-17 18:00N 40°53' W 010°06'1720.8
2017-Aug-17 17:10N 41°11' W 010°07'720.5
2017-Aug-17 16:49N 41°18' W 010°06'48819.7
2017-Aug-16 16:01N 48°51' W 005°50'020.0
2017-Aug-16 16:00N 48°52' W 005°50'1019.6
2017-Aug-16 15:28N 48°58' W 005°37'1020.2
2017-Aug-16 15:00N 49°02' W 005°24'1020.2
2017-Aug-16 14:30N 49°07' W 005°11'1019.9
2017-Aug-16 14:00N 49°12' W 004°58'1019.6
2017-Aug-16 13:30N 49°17' W 004°45'1019.2
2017-Aug-16 13:00N 49°22' W 004°33'1019.3
2017-Aug-16 12:30N 49°27' W 004°20'1019.2
2017-Aug-16 12:00N 49°33' W 004°08'1019.2
2017-Aug-16 11:30N 49°38' W 003°55'1019.2
2017-Aug-16 11:01N 49°42' W 003°42'1019.3
2017-Aug-16 10:30N 49°46' W 003°29'1019.8
2017-Aug-16 10:00N 49°51' W 003°15'1020.4
2017-Aug-16 09:30N 49°55' W 003°01'1021.1
2017-Aug-16 09:01N 49°59' W 002°45'1121.7
2017-Aug-16 08:30N 50°02' W 002°29'1122.2
2017-Aug-16 08:00N 50°05' W 002°13'1122.7
2017-Aug-16 07:30N 50°09' W 001°56'1122.6
2017-Aug-16 07:00N 50°12' W 001°39'1122.1
2017-Aug-16 06:30N 50°15' W 001°22'1121.8
2017-Aug-16 06:00N 50°19' W 001°06'1121.0
2017-Aug-16 05:30N 50°22' W 000°51'1020.3
2017-Aug-16 05:00N 50°25' W 000°35'1020.0
2017-Aug-16 04:30N 50°28' W 000°20'1019.7
2017-Aug-16 04:00N 50°30' W 000°05'1019.2
2017-Aug-16 03:31N 50°33' E 000°09'1018.9
2017-Aug-16 03:00N 50°36' E 000°23'918.9
2017-Aug-16 02:30N 50°39' E 000°37'1019.4
2017-Aug-16 02:00N 50°45' E 000°50'1020.0
2017-Aug-16 01:30N 50°49' E 001°04'1020.9
2017-Aug-16 01:01N 50°55' E 001°18'1122.0
2017-Aug-16 00:31N 51°04' E 001°28'1122.1
2017-Aug-16 00:00N 51°12' E 001°40'1121.3
2017-Aug-15 23:30N 51°19' E 001°52'816.3
2017-Aug-15 23:00N 51°25' E 002°02'1020.1
2017-Aug-15 22:30N 51°20' E 002°16'1019.4
2017-Aug-15 22:01N 51°23' E 002°31'816.1
2017-Aug-15 21:30N 51°24' E 002°44'612.3
2017-Aug-15 21:01N 51°25' E 002°53'815.2
2017-Aug-15 20:30N 51°24' E 003°06'5 9.8
2017-Aug-15 20:01N 51°21' E 003°12'0 0.7
2017-Aug-15 19:30N 51°21' E 003°11'0 0.0
2017-Aug-15 19:00N 51°21' E 003°11'0 0.0
2017-Aug-15 18:30N 51°21' E 003°11'0 0.0
2017-Aug-15 18:00N 51°21' E 003°11'0 0.0
2017-Aug-15 17:30N 51°21' E 003°11'0 0.0
2017-Aug-15 17:00N 51°21' E 003°11'0 0.0
2017-Aug-15 16:30N 51°21' E 003°11'0 0.0
2017-Aug-15 16:00N 51°21' E 003°11'0 0.0
2017-Aug-15 15:30N 51°21' E 003°11'0 0.0
2017-Aug-15 15:00N 51°21' E 003°11'0 0.0
2017-Aug-15 14:30N 51°21' E 003°11'0 0.0
2017-Aug-15 14:00N 51°21' E 003°11'0 0.0
2017-Aug-15 13:30N 51°21' E 003°11'0 0.0
2017-Aug-15 13:00N 51°21' E 003°11'0 0.0
2017-Aug-15 12:30N 51°21' E 003°11'0 0.0
2017-Aug-15 12:01N 51°21' E 003°11'0 0.0
2017-Aug-15 11:30N 51°21' E 003°11'0 0.0
2017-Aug-15 11:00N 51°21' E 003°11'0 0.0
2017-Aug-15 10:30N 51°21' E 003°11'0 0.0
2017-Aug-15 10:00N 51°21' E 003°11'0 0.0
2017-Aug-15 09:30N 51°21' E 003°11'0 0.0
2017-Aug-15 09:00N 51°21' E 003°11'0 0.0
2017-Aug-15 08:30N 51°21' E 003°11'0 0.0
2017-Aug-15 08:00N 51°21' E 003°11'0 0.0
2017-Aug-15 07:30N 51°21' E 003°11'0 0.0
2017-Aug-15 07:00N 51°21' E 003°11'0 0.0
2017-Aug-15 06:30N 51°21' E 003°11'0 0.0
2017-Aug-15 06:00N 51°21' E 003°11'0 0.0
2017-Aug-15 05:30N 51°21' E 003°11'0 0.0
2017-Aug-15 05:00N 51°21' E 003°11'0 0.0
2017-Aug-15 04:30N 51°21' E 003°11'0 0.0
2017-Aug-15 04:00N 51°21' E 003°11'0 0.0
2017-Aug-15 03:30N 51°21' E 003°11'0 0.0
2017-Aug-15 03:00N 51°21' E 003°11'0 0.0
2017-Aug-15 02:30N 51°21' E 003°11'0 0.0
2017-Aug-15 02:00N 51°21' E 003°11'0 0.0
2017-Aug-15 01:30N 51°21' E 003°11'0 0.0
2017-Aug-15 01:00N 51°21' E 003°11'0 0.0
2017-Aug-15 00:30N 51°21' E 003°11'0 0.0
2017-Aug-15 00:00N 51°21' E 003°11'0 0.0
2017-Aug-14 23:30N 51°21' E 003°11'0 0.0
2017-Aug-14 23:00N 51°21' E 003°11'0 0.0
2017-Aug-14 22:30N 51°21' E 003°11'0 0.0
2017-Aug-14 22:00N 51°21' E 003°11'0 0.0
2017-Aug-14 21:30N 51°21' E 003°11'0 0.0
2017-Aug-14 21:00N 51°21' E 003°11'0 0.0
2017-Aug-14 20:30N 51°21' E 003°11'0 0.0
2017-Aug-14 20:00N 51°21' E 003°11'0 0.0
2017-Aug-14 19:30N 51°21' E 003°11'0 0.0
2017-Aug-14 19:00N 51°21' E 003°11'0 0.0
2017-Aug-14 18:30N 51°21' E 003°11'0 0.0
2017-Aug-14 18:00N 51°21' E 003°11'0 0.0
2017-Aug-14 17:30N 51°21' E 003°11'0 0.0
2017-Aug-14 17:00N 51°21' E 003°11'0 0.0
2017-Aug-14 16:30N 51°21' E 003°11'0 0.0
2017-Aug-14 16:00N 51°21' E 003°11'0 0.0
2017-Aug-14 15:30N 51°21' E 003°11'0 0.0
2017-Aug-14 15:01N 51°21' E 003°11'0 0.4
2017-Aug-14 14:31N 51°21' E 003°12'1 2.3
2017-Aug-14 14:01N 51°22' E 003°11'612.4
2017-Aug-14 13:30N 51°25' E 003°02'815.2
2017-Aug-14 13:00N 51°25' E 002°50'612.6
2017-Aug-14 12:30N 51°22' E 002°41'5 9.7
2017-Aug-14 12:00N 51°22' E 002°33'2 4.0
2017-Aug-14 11:30N 51°23' E 002°30'4 9.0
2017-Aug-14 11:00N 51°27' E 002°33'4 9.0
2017-Aug-14 10:30N 51°31' E 002°36'4 8.5
2017-Aug-14 10:00N 51°35' E 002°39'4 8.0
2017-Aug-14 09:30N 51°39' E 002°39'4 7.6
2017-Aug-14 09:00N 51°43' E 002°38'4 7.5
2017-Aug-14 08:29N 51°47' E 002°37'4 8.1
2017-Aug-14 08:00N 51°51' E 002°36'4 8.4
2017-Aug-14 07:30N 51°54' E 002°40'4 8.2
2017-Aug-14 07:00N 51°57' E 002°45'4 8.0
2017-Aug-14 06:30N 52°00' E 002°49'3 6.3
2017-Aug-14 06:00N 52°02' E 002°53'4 7.2
2017-Aug-14 05:30N 52°02' E 002°59'4 7.1
2017-Aug-14 05:00N 52°02' E 003°05'4 7.2
2017-Aug-14 04:30N 52°02' E 003°11'4 7.4
2017-Aug-14 04:00N 52°02' E 003°17'4 7.7
2017-Aug-14 03:30N 52°02' E 003°23'4 8.0
2017-Aug-14 03:00N 52°03' E 003°30'4 8.5
2017-Aug-14 02:30N 52°03' E 003°36'4 8.6
2017-Aug-14 02:00N 52°03' E 003°43'5 9.2
2017-Aug-14 01:30N 52°03' E 003°51'5 9.7
2017-Aug-14 01:00N 52°01' E 003°58'510.2
2017-Aug-14 00:30N 51°58' E 004°05'1 2.7
2017-Aug-14 00:00N 51°57' E 004°02'0 0.0
2017-Aug-13 23:30N 51°57' E 004°02'0 0.0
2017-Aug-13 23:00N 51°57' E 004°02'0 0.0
2017-Aug-13 22:30N 51°57' E 004°02'0 0.0
2017-Aug-13 22:00N 51°57' E 004°02'0 0.0
2017-Aug-13 21:29N 51°57' E 004°02'0 0.0
2017-Aug-13 21:00N 51°57' E 004°02'0 0.0
2017-Aug-13 20:30N 51°57' E 004°02'0 0.0
2017-Aug-13 20:00N 51°57' E 004°02'0 0.0
2017-Aug-13 19:30N 51°57' E 004°02'0 0.0
2017-Aug-13 19:00N 51°57' E 004°02'0 0.0
2017-Aug-13 18:30N 51°57' E 004°02'0 0.0
2017-Aug-13 18:00N 51°57' E 004°02'0 0.0
2017-Aug-13 17:29N 51°57' E 004°02'0 0.0
2017-Aug-13 17:00N 51°57' E 004°02'0 0.0
2017-Aug-13 16:30N 51°57' E 004°02'0 0.0
2017-Aug-13 16:00N 51°57' E 004°02'0 0.0
2017-Aug-13 15:30N 51°57' E 004°02'0 0.0
2017-Aug-13 15:00N 51°57' E 004°02'0 0.0
2017-Aug-13 14:30N 51°57' E 004°02'0 0.0
2017-Aug-13 14:00N 51°57' E 004°02'0 0.0
2017-Aug-13 13:30N 51°57' E 004°02'0 0.0
2017-Aug-13 13:00N 51°57' E 004°02'0 0.0
2017-Aug-13 12:30N 51°57' E 004°02'0 0.0
2017-Aug-13 12:00N 51°57' E 004°02'0 0.0
2017-Aug-13 11:30N 51°57' E 004°02'0 0.0
2017-Aug-13 11:00N 51°57' E 004°02'0 0.0
2017-Aug-13 10:30N 51°57' E 004°02'0 0.0
2017-Aug-13 10:00N 51°57' E 004°02'0 0.0
2017-Aug-13 09:30N 51°57' E 004°02'0 0.0
2017-Aug-13 09:00N 51°57' E 004°02'0 0.0
2017-Aug-13 08:30N 51°57' E 004°02'0 0.0
2017-Aug-13 08:00N 51°57' E 004°02'0 0.0
2017-Aug-13 07:30N 51°57' E 004°02'0 0.0
2017-Aug-13 07:00N 51°57' E 004°02'0 0.0
2017-Aug-13 06:30N 51°57' E 004°02'0 0.0
2017-Aug-13 06:00N 51°57' E 004°02'0 0.0
2017-Aug-13 05:30N 51°57' E 004°02'0 0.0
2017-Aug-13 05:00N 51°57' E 004°02'0 0.0
2017-Aug-13 04:30N 51°57' E 004°02'0 0.0
2017-Aug-13 04:00N 51°57' E 004°02'0 0.0
2017-Aug-13 03:30N 51°57' E 004°02'0 0.0
2017-Aug-13 03:00N 51°57' E 004°02'0 0.0
2017-Aug-13 02:30N 51°57' E 004°02'0 0.0
2017-Aug-13 02:00N 51°57' E 004°02'0 0.0
2017-Aug-13 01:30N 51°57' E 004°02'0 0.0
2017-Aug-13 01:00N 51°57' E 004°02'1 1.5
2017-Aug-13 00:30N 51°58' E 004°03'1 2.6
2017-Aug-13 00:00N 51°59' E 004°05'4 7.9
2017-Aug-12 23:30N 52°00' E 003°59'5 9.7
2017-Aug-12 23:01N 52°01' E 003°52'4 7.7
2017-Aug-12 22:31N 52°01' E 003°45'3 6.8
2017-Aug-12 22:01N 52°04' E 003°43'510.1
2017-Aug-12 21:30N 52°09' E 003°46'5 9.9
2017-Aug-12 21:01N 52°14' E 003°46'5 9.5
2017-Aug-12 20:30N 52°19' E 003°48'612.0
2017-Aug-12 20:00N 52°25' E 003°50'612.8
2017-Aug-12 19:30N 52°31' E 003°52'613.0
2017-Aug-12 19:00N 52°37' E 003°53'712.7
2017-Aug-12 18:27N 52°44' E 003°56'612.6
2017-Aug-12 18:00N 52°50' E 003°57'712.5
2017-Aug-12 17:29N 52°56' E 003°60'811.4
2017-Aug-12 16:49N 53°02' E 004°09'411.8
2017-Aug-12 16:29N 53°04' E 004°13'612.2
2017-Aug-12 16:00N 53°08' E 004°20'612.4
2017-Aug-12 15:30N 53°13' E 004°26'713.0
2017-Aug-12 15:00N 53°20' E 004°30'713.3
2017-Aug-12 14:30N 53°26' E 004°35'612.9
2017-Aug-12 14:00N 53°30' E 004°43'713.7
2017-Aug-12 13:30N 53°32' E 004°54'  
Track history (hours):
 
Tides and Currents Weather Stations Pressure Air Temp Water Temp Dewpoint Dewpoint Depression Visibility Wind Speed Wind Dir Waves Ship Positions

Dali

Last reported at 2017-Aug-22 13:19 UTC. Time now 2017-Sep-20 02:13 UTC.
Position N 31°56' E 031°17'.
Warning: this ship's position is 28 days out of date.

Length 300 m; draft 13.8 m.

Type: Cargo ship. MMSI: 563004200.

Date/timePositionNaut miles runAvg speedWind from/ knotsBaromVisibWave heightAir tempDewpointWater temp
2017-Aug-22 13:19N 31°56' E 031°17'76519.4
2017-Aug-20 21:52N 35°46' E 016°39'820.0
2017-Aug-20 21:29N 35°48' E 016°30'919.5
2017-Aug-20 21:00N 35°51' E 016°19'1019.1
2017-Aug-20 20:30N 35°54' E 016°07'1019.2
2017-Aug-20 20:00N 35°57' E 015°56'3819.9
2017-Aug-20 18:05N 36°08' E 015°11'220.3
2017-Aug-20 18:00N 36°08' E 015°09'1020.5
2017-Aug-20 17:30N 36°12' E 014°57'1020.3
2017-Aug-20 17:00N 36°15' E 014°45'1020.1
2017-Aug-20 16:30N 36°18' E 014°33'1020.1
2017-Aug-20 16:00N 36°21' E 014°21'1020.2
2017-Aug-20 15:30N 36°24' E 014°09'1020.0
2017-Aug-20 15:00N 36°27' E 013°57'1020.0
2017-Aug-20 14:30N 36°30' E 013°46'1020.2
2017-Aug-20 14:00N 36°34' E 013°34'1020.5
2017-Aug-20 13:30N 36°37' E 013°22'1020.6
2017-Aug-20 13:00N 36°40' E 013°10'1020.5
2017-Aug-20 12:30N 36°43' E 012°57'1020.3
2017-Aug-20 12:00N 36°46' E 012°45'1020.2
2017-Aug-20 11:30N 36°49' E 012°33'1520.0
2017-Aug-20 10:45N 36°53' E 012°15'519.8
2017-Aug-20 10:30N 36°55' E 012°10'1019.9
2017-Aug-20 10:01N 36°59' E 011°58'1020.0
2017-Aug-20 09:30N 37°04' E 011°47'1119.9
2017-Aug-20 08:56N 37°09' E 011°35'920.1
2017-Aug-20 08:30N 37°14' E 011°25'1020.4
2017-Aug-20 08:00N 37°19' E 011°14'1020.2
2017-Aug-20 07:30N 37°23' E 011°03'1020.0
2017-Aug-20 07:00N 37°26' E 010°50'1020.2
2017-Aug-20 06:30N 37°29' E 010°38'1020.0
2017-Aug-20 06:00N 37°31' E 010°26'1019.7
2017-Aug-20 05:30N 37°33' E 010°14'1019.7
2017-Aug-20 05:00N 37°33' E 010°01'1119.8
2017-Aug-20 04:28N 37°30' E 009°49'22619.5
2017-Aug-19 16:54N 37°10' E 005°06'919.8
2017-Aug-19 16:26N 37°10' E 004°54'1319.7
2017-Aug-19 15:48N 37°09' E 004°38'619.5
2017-Aug-19 15:29N 37°08' E 004°31'919.9
2017-Aug-19 15:00N 37°08' E 004°19'2020.3
2017-Aug-19 14:00N 37°04' E 003°54'1020.4
2017-Aug-19 13:30N 37°03' E 003°41'1020.3
2017-Aug-19 13:00N 37°01' E 003°28'1020.3
2017-Aug-19 12:30N 36°60' E 003°16'1020.2
2017-Aug-19 12:00N 36°58' E 003°04'1120.3
2017-Aug-19 11:27N 36°56' E 002°50'1020.2
2017-Aug-19 10:58N 36°55' E 002°38'1020.2
2017-Aug-19 10:30N 36°53' E 002°26'1120.2
2017-Aug-19 09:59N 36°52' E 002°13'4620.0
2017-Aug-19 07:40N 36°46' E 001°15'3120.9
2017-Aug-19 06:12N 36°42' E 000°38'620.9
2017-Aug-19 05:53N 36°41' E 000°30'820.6
2017-Aug-19 05:31N 36°40' E 000°20'1020.6
2017-Aug-19 05:00N 36°38' E 000°07'1020.6
2017-Aug-19 04:31N 36°36' W 000°05'1020.5
2017-Aug-19 04:00N 36°35' W 000°18'1020.4
2017-Aug-19 03:31N 36°33' W 000°30'1020.5
2017-Aug-19 03:01N 36°32' W 000°43'1020.7
2017-Aug-19 02:31N 36°31' W 000°56'1120.9
2017-Aug-19 01:58N 36°29' W 001°10'1220.6
2017-Aug-19 01:22N 36°27' W 001°25'1020.9
2017-Aug-19 00:53N 36°25' W 001°37'921.2
2017-Aug-19 00:28N 36°24' W 001°48'1021.4
2017-Aug-19 00:00N 36°23' W 002°00'1121.8
2017-Aug-18 23:30N 36°22' W 002°14'14221.2
2017-Aug-18 16:50N 36°02' W 005°08'720.9
2017-Aug-18 16:30N 36°01' W 005°16'1122.4
2017-Aug-18 16:01N 35°58' W 005°29'2221.3
2017-Aug-18 14:58N 35°55' W 005°57'8020.4
2017-Aug-18 11:01N 36°11' W 007°34'019.8
2017-Aug-18 11:00N 36°11' W 007°34'1020.5
2017-Aug-18 10:31N 36°13' W 007°46'1020.6
2017-Aug-18 10:00N 36°15' W 007°59'1020.7
2017-Aug-18 09:31N 36°18' W 008°11'1020.9
2017-Aug-18 09:01N 36°20' W 008°24'1020.7
2017-Aug-18 08:30N 36°23' W 008°36'1020.9
2017-Aug-18 08:01N 36°27' W 008°49'1020.8
2017-Aug-18 07:31N 36°30' W 009°01'1020.9
2017-Aug-18 07:01N 36°33' W 009°13'1020.3
2017-Aug-18 06:30N 36°38' W 009°24'1020.8
2017-Aug-18 06:00N 36°46' W 009°32'1121.1
2017-Aug-18 05:30N 36°56' W 009°36'1121.3
2017-Aug-18 05:00N 37°07' W 009°39'1121.2
2017-Aug-18 04:31N 37°17' W 009°42'1121.1
2017-Aug-18 04:00N 37°27' W 009°45'1020.7
2017-Aug-18 03:30N 37°37' W 009°49'1020.7
2017-Aug-18 03:00N 37°48' W 009°51'1020.7
2017-Aug-18 02:30N 37°58' W 009°54'1020.4
2017-Aug-18 02:00N 38°08' W 009°56'1020.3
2017-Aug-18 01:30N 38°18' W 009°59'1020.6
2017-Aug-18 01:01N 38°28' W 010°02'1121.0
2017-Aug-18 00:30N 38°38' W 010°05'1020.7
2017-Aug-18 00:01N 38°48' W 010°07'1020.9
2017-Aug-17 23:31N 38°59' W 010°07'1020.9
2017-Aug-17 23:01N 39°09' W 010°07'1020.8
2017-Aug-17 22:31N 39°19' W 010°07'1121.0
2017-Aug-17 22:01N 39°30' W 010°07'1121.1
2017-Aug-17 21:30N 39°40' W 010°07'1121.1
2017-Aug-17 21:01N 39°51' W 010°07'1020.9
2017-Aug-17 20:31N 40°01' W 010°07'1020.4
2017-Aug-17 20:00N 40°12' W 010°06'1020.4
2017-Aug-17 19:30N 40°22' W 010°07'1121.0
2017-Aug-17 19:00N 40°32' W 010°07'1021.0
2017-Aug-17 18:30N 40°43' W 010°07'1121.0
2017-Aug-17 18:00N 40°53' W 010°06'1720.8
2017-Aug-17 17:10N 41°11' W 010°07'720.5
2017-Aug-17 16:49N 41°18' W 010°06'48819.7
2017-Aug-16 16:01N 48°51' W 005°50'020.0
2017-Aug-16 16:00N 48°52' W 005°50'1019.6
2017-Aug-16 15:28N 48°58' W 005°37'1020.2
2017-Aug-16 15:00N 49°02' W 005°24'1020.2
2017-Aug-16 14:30N 49°07' W 005°11'1019.9
2017-Aug-16 14:00N 49°12' W 004°58'1019.6
2017-Aug-16 13:30N 49°17' W 004°45'1019.2
2017-Aug-16 13:00N 49°22' W 004°33'1019.3
2017-Aug-16 12:30N 49°27' W 004°20'1019.2
2017-Aug-16 12:00N 49°33' W 004°08'1019.2
2017-Aug-16 11:30N 49°38' W 003°55'1019.2
2017-Aug-16 11:01N 49°42' W 003°42'1019.3
2017-Aug-16 10:30N 49°46' W 003°29'1019.8
2017-Aug-16 10:00N 49°51' W 003°15'1020.4
2017-Aug-16 09:30N 49°55' W 003°01'1021.1
2017-Aug-16 09:01N 49°59' W 002°45'1121.7
2017-Aug-16 08:30N 50°02' W 002°29'1122.2
2017-Aug-16 08:00N 50°05' W 002°13'1122.7
2017-Aug-16 07:30N 50°09' W 001°56'1122.6
2017-Aug-16 07:00N 50°12' W 001°39'1122.1
2017-Aug-16 06:30N 50°15' W 001°22'1121.8
2017-Aug-16 06:00N 50°19' W 001°06'1121.0
2017-Aug-16 05:30N 50°22' W 000°51'1020.3
2017-Aug-16 05:00N 50°25' W 000°35'1020.0
2017-Aug-16 04:30N 50°28' W 000°20'1019.7
2017-Aug-16 04:00N 50°30' W 000°05'1019.2
2017-Aug-16 03:31N 50°33' E 000°09'1018.9
2017-Aug-16 03:00N 50°36' E 000°23'918.9
2017-Aug-16 02:30N 50°39' E 000°37'1019.4
2017-Aug-16 02:00N 50°45' E 000°50'1020.0
2017-Aug-16 01:30N 50°49' E 001°04'1020.9
2017-Aug-16 01:01N 50°55' E 001°18'1122.0
2017-Aug-16 00:31N 51°04' E 001°28'1122.1
2017-Aug-16 00:00N 51°12' E 001°40'1121.3
2017-Aug-15 23:30N 51°19' E 001°52'816.3
2017-Aug-15 23:00N 51°25' E 002°02'1020.1
2017-Aug-15 22:30N 51°20' E 002°16'1019.4
2017-Aug-15 22:01N 51°23' E 002°31'816.1
2017-Aug-15 21:30N 51°24' E 002°44'612.3
2017-Aug-15 21:01N 51°25' E 002°53'815.2
2017-Aug-15 20:30N 51°24' E 003°06'5 9.8
2017-Aug-15 20:01N 51°21' E 003°12'0 0.7
2017-Aug-15 19:30N 51°21' E 003°11'0 0.0
2017-Aug-15 19:00N 51°21' E 003°11'0 0.0
2017-Aug-15 18:30N 51°21' E 003°11'0 0.0
2017-Aug-15 18:00N 51°21' E 003°11'0 0.0
2017-Aug-15 17:30N 51°21' E 003°11'0 0.0
2017-Aug-15 17:00N 51°21' E 003°11'0 0.0
2017-Aug-15 16:30N 51°21' E 003°11'0 0.0
2017-Aug-15 16:00N 51°21' E 003°11'0 0.0
2017-Aug-15 15:30N 51°21' E 003°11'0 0.0
2017-Aug-15 15:00N 51°21' E 003°11'0 0.0
2017-Aug-15 14:30N 51°21' E 003°11'0 0.0
2017-Aug-15 14:00N 51°21' E 003°11'0 0.0
2017-Aug-15 13:30N 51°21' E 003°11'0 0.0
2017-Aug-15 13:00N 51°21' E 003°11'0 0.0
2017-Aug-15 12:30N 51°21' E 003°11'0 0.0
2017-Aug-15 12:01N 51°21' E 003°11'0 0.0
2017-Aug-15 11:30N 51°21' E 003°11'0 0.0
2017-Aug-15 11:00N 51°21' E 003°11'0 0.0
2017-Aug-15 10:30N 51°21' E 003°11'0 0.0
2017-Aug-15 10:00N 51°21' E 003°11'0 0.0
2017-Aug-15 09:30N 51°21' E 003°11'0 0.0
2017-Aug-15 09:00N 51°21' E 003°11'0 0.0
2017-Aug-15 08:30N 51°21' E 003°11'0 0.0
2017-Aug-15 08:00N 51°21' E 003°11'0 0.0
2017-Aug-15 07:30N 51°21' E 003°11'0 0.0
2017-Aug-15 07:00N 51°21' E 003°11'0 0.0
2017-Aug-15 06:30N 51°21' E 003°11'0 0.0
2017-Aug-15 06:00N 51°21' E 003°11'0 0.0
2017-Aug-15 05:30N 51°21' E 003°11'0 0.0
2017-Aug-15 05:00N 51°21' E 003°11'0 0.0
2017-Aug-15 04:30N 51°21' E 003°11'0 0.0
2017-Aug-15 04:00N 51°21' E 003°11'0 0.0
2017-Aug-15 03:30N 51°21' E 003°11'0 0.0
2017-Aug-15 03:00N 51°21' E 003°11'0 0.0
2017-Aug-15 02:30N 51°21' E 003°11'0 0.0
2017-Aug-15 02:00N 51°21' E 003°11'0 0.0
2017-Aug-15 01:30N 51°21' E 003°11'0 0.0
2017-Aug-15 01:00N 51°21' E 003°11'0 0.0
2017-Aug-15 00:30N 51°21' E 003°11'0 0.0
2017-Aug-15 00:00N 51°21' E 003°11'0 0.0
2017-Aug-14 23:30N 51°21' E 003°11'0 0.0
2017-Aug-14 23:00N 51°21' E 003°11'0 0.0
2017-Aug-14 22:30N 51°21' E 003°11'0 0.0
2017-Aug-14 22:00N 51°21' E 003°11'0 0.0
2017-Aug-14 21:30N 51°21' E 003°11'0 0.0
2017-Aug-14 21:00N 51°21' E 003°11'0 0.0
2017-Aug-14 20:30N 51°21' E 003°11'0 0.0
2017-Aug-14 20:00N 51°21' E 003°11'0 0.0
2017-Aug-14 19:30N 51°21' E 003°11'0 0.0
2017-Aug-14 19:00N 51°21' E 003°11'0 0.0
2017-Aug-14 18:30N 51°21' E 003°11'0 0.0
2017-Aug-14 18:00N 51°21' E 003°11'0 0.0
2017-Aug-14 17:30N 51°21' E 003°11'0 0.0
2017-Aug-14 17:00N 51°21' E 003°11'0 0.0
2017-Aug-14 16:30N 51°21' E 003°11'0 0.0
2017-Aug-14 16:00N 51°21' E 003°11'0 0.0
2017-Aug-14 15:30N 51°21' E 003°11'0 0.0
2017-Aug-14 15:01N 51°21' E 003°11'0 0.4
2017-Aug-14 14:31N 51°21' E 003°12'1 2.3
2017-Aug-14 14:01N 51°22' E 003°11'612.4
2017-Aug-14 13:30N 51°25' E 003°02'815.2
2017-Aug-14 13:00N 51°25' E 002°50'612.6
2017-Aug-14 12:30N 51°22' E 002°41'5 9.7
2017-Aug-14 12:00N 51°22' E 002°33'2 4.0
2017-Aug-14 11:30N 51°23' E 002°30'4 9.0
2017-Aug-14 11:00N 51°27' E 002°33'4 9.0
2017-Aug-14 10:30N 51°31' E 002°36'4 8.5
2017-Aug-14 10:00N 51°35' E 002°39'4 8.0
2017-Aug-14 09:30N 51°39' E 002°39'4 7.6
2017-Aug-14 09:00N 51°43' E 002°38'4 7.5
2017-Aug-14 08:29N 51°47' E 002°37'4 8.1
2017-Aug-14 08:00N 51°51' E 002°36'4 8.4
2017-Aug-14 07:30N 51°54' E 002°40'4 8.2
2017-Aug-14 07:00N 51°57' E 002°45'4 8.0
2017-Aug-14 06:30N 52°00' E 002°49'3 6.3
2017-Aug-14 06:00N 52°02' E 002°53'4 7.2
2017-Aug-14 05:30N 52°02' E 002°59'4 7.1
2017-Aug-14 05:00N 52°02' E 003°05'4 7.2
2017-Aug-14 04:30N 52°02' E 003°11'4 7.4
2017-Aug-14 04:00N 52°02' E 003°17'4 7.7
2017-Aug-14 03:30N 52°02' E 003°23'4 8.0
2017-Aug-14 03:00N 52°03' E 003°30'4 8.5
2017-Aug-14 02:30N 52°03' E 003°36'4 8.6
2017-Aug-14 02:00N 52°03' E 003°43'5 9.2
2017-Aug-14 01:30N 52°03' E 003°51'5 9.7
2017-Aug-14 01:00N 52°01' E 003°58'510.2
2017-Aug-14 00:30N 51°58' E 004°05'1 2.7
2017-Aug-14 00:00N 51°57' E 004°02'0 0.0
2017-Aug-13 23:30N 51°57' E 004°02'0 0.0
2017-Aug-13 23:00N 51°57' E 004°02'0 0.0
2017-Aug-13 22:30N 51°57' E 004°02'0 0.0
2017-Aug-13 22:00N 51°57' E 004°02'0 0.0
2017-Aug-13 21:29N 51°57' E 004°02'0 0.0
2017-Aug-13 21:00N 51°57' E 004°02'0 0.0
2017-Aug-13 20:30N 51°57' E 004°02'0 0.0
2017-Aug-13 20:00N 51°57' E 004°02'0 0.0
2017-Aug-13 19:30N 51°57' E 004°02'0 0.0
2017-Aug-13 19:00N 51°57' E 004°02'0 0.0
2017-Aug-13 18:30N 51°57' E 004°02'0 0.0
2017-Aug-13 18:00N 51°57' E 004°02'0 0.0
2017-Aug-13 17:29N 51°57' E 004°02'0 0.0
2017-Aug-13 17:00N 51°57' E 004°02'0 0.0
2017-Aug-13 16:30N 51°57' E 004°02'0 0.0
2017-Aug-13 16:00N 51°57' E 004°02'0 0.0
2017-Aug-13 15:30N 51°57' E 004°02'0 0.0
2017-Aug-13 15:00N 51°57' E 004°02'0 0.0
2017-Aug-13 14:30N 51°57' E 004°02'0 0.0
2017-Aug-13 14:00N 51°57' E 004°02'0 0.0
2017-Aug-13 13:30N 51°57' E 004°02'0 0.0
2017-Aug-13 13:00N 51°57' E 004°02'0 0.0
2017-Aug-13 12:30N 51°57' E 004°02'0 0.0
2017-Aug-13 12:00N 51°57' E 004°02'0 0.0
2017-Aug-13 11:30N 51°57' E 004°02'0 0.0
2017-Aug-13 11:00N 51°57' E 004°02'0 0.0
2017-Aug-13 10:30N 51°57' E 004°02'0 0.0
2017-Aug-13 10:00N 51°57' E 004°02'0 0.0
2017-Aug-13 09:30N 51°57' E 004°02'0 0.0
2017-Aug-13 09:00N 51°57' E 004°02'0 0.0
2017-Aug-13 08:30N 51°57' E 004°02'0 0.0
2017-Aug-13 08:00N 51°57' E 004°02'0 0.0
2017-Aug-13 07:30N 51°57' E 004°02'0 0.0
2017-Aug-13 07:00N 51°57' E 004°02'0 0.0
2017-Aug-13 06:30N 51°57' E 004°02'0 0.0
2017-Aug-13 06:00N 51°57' E 004°02'0 0.0
2017-Aug-13 05:30N 51°57' E 004°02'0 0.0
2017-Aug-13 05:00N 51°57' E 004°02'0 0.0
2017-Aug-13 04:30N 51°57' E 004°02'0 0.0
2017-Aug-13 04:00N 51°57' E 004°02'0 0.0
2017-Aug-13 03:30N 51°57' E 004°02'0 0.0
2017-Aug-13 03:00N 51°57' E 004°02'0 0.0
2017-Aug-13 02:30N 51°57' E 004°02'0 0.0
2017-Aug-13 02:00N 51°57' E 004°02'0 0.0
2017-Aug-13 01:30N 51°57' E 004°02'0 0.0
2017-Aug-13 01:00N 51°57' E 004°02'1 1.5
2017-Aug-13 00:30N 51°58' E 004°03'1 2.6
2017-Aug-13 00:00N 51°59' E 004°05'4 7.9
2017-Aug-12 23:30N 52°00' E 003°59'5 9.7
2017-Aug-12 23:01N 52°01' E 003°52'4 7.7
2017-Aug-12 22:31N 52°01' E 003°45'3 6.8
2017-Aug-12 22:01N 52°04' E 003°43'510.1
2017-Aug-12 21:30N 52°09' E 003°46'5 9.9
2017-Aug-12 21:01N 52°14' E 003°46'5 9.5
2017-Aug-12 20:30N 52°19' E 003°48'612.0
2017-Aug-12 20:00N 52°25' E 003°50'612.8
2017-Aug-12 19:30N 52°31' E 003°52'613.0
2017-Aug-12 19:00N 52°37' E 003°53'712.7
2017-Aug-12 18:27N 52°44' E 003°56'612.6
2017-Aug-12 18:00N 52°50' E 003°57'712.5
2017-Aug-12 17:29N 52°56' E 003°60'811.4
2017-Aug-12 16:49N 53°02' E 004°09'411.8
2017-Aug-12 16:29N 53°04' E 004°13'612.2
2017-Aug-12 16:00N 53°08' E 004°20'612.4
2017-Aug-12 15:30N 53°13' E 004°26'713.0
2017-Aug-12 15:00N 53°20' E 004°30'713.3
2017-Aug-12 14:30N 53°26' E 004°35'612.9
2017-Aug-12 14:00N 53°30' E 004°43'713.7
2017-Aug-12 13:30N 53°32' E 004°54'  

Dump ship's entire track history